createdAt,value
2017-04-12T00:00:32.164Z,97.18
2017-04-12T00:01:54.768Z,97.96
2017-04-12T00:03:11.594Z,96.12
2017-04-12T00:04:28.366Z,95.06
2017-04-12T00:05:42.778Z,95.06
2017-04-12T00:07:02.540Z,95.15
2017-04-12T00:08:15.751Z,94.57
2017-04-12T00:09:29.581Z,93.8
2017-04-12T00:10:46.412Z,94.57
2017-04-12T00:12:00.252Z,94.48
2017-04-12T00:13:19.986Z,94.18
2017-04-12T00:14:33.831Z,93.8
2017-04-12T00:15:48.306Z,94.38
2017-04-12T00:17:07.992Z,94.57
2017-04-12T00:18:27.081Z,95.44
2017-04-12T00:19:46.249Z,95.06
2017-04-12T00:21:03.630Z,94.86
2017-04-12T00:22:29.247Z,95.93
2017-04-12T00:23:48.377Z,95.54
2017-04-12T00:25:08.734Z,95.2
2017-04-12T00:26:25.499Z,95.83
2017-04-12T00:27:50.507Z,94.33
2017-04-12T00:29:04.339Z,95.1
2017-04-12T00:30:18.849Z,94.76
2017-04-12T00:31:32.188Z,94.18
2017-04-12T00:32:46.042Z,93.99
2017-04-12T00:34:03.345Z,92.25
2017-04-12T00:35:20.167Z,92.25
2017-04-12T00:36:37.549Z,91.86
2017-04-12T00:37:53.722Z,92.16
2017-04-12T00:39:07.619Z,92.25
2017-04-12T00:40:21.468Z,92.16
2017-04-12T00:41:40.613Z,91.48
2017-04-12T00:42:58.034Z,91.38
2017-04-12T00:44:14.270Z,91.38
2017-04-12T00:45:27.567Z,91.67
2017-04-12T00:46:41.348Z,91.86
2017-04-12T00:47:55.188Z,91.67
2017-04-12T00:49:11.916Z,91.67
2017-04-12T00:50:28.659Z,91.77
2017-04-12T00:51:42.522Z,91.58
2017-04-12T00:52:58.726Z,92.16
2017-04-12T00:54:15.527Z,91.86
2017-04-12T00:55:29.965Z,90.7
2017-04-12T00:56:47.389Z,90.7
2017-04-12T00:58:00.715Z,91.38
2017-04-12T00:59:17.487Z,90.9
2017-04-12T01:00:34.244Z,91.28
2017-04-12T01:01:47.982Z,90.51
2017-04-12T01:03:13.619Z,90.41
2017-04-12T01:04:26.855Z,91.09
2017-04-12T01:05:41.315Z,90.51
2017-04-12T01:06:58.721Z,90.32
2017-04-12T01:08:12.552Z,90.22
2017-04-12T01:09:26.403Z,90.12
2017-04-12T01:10:40.268Z,89.74
2017-04-12T01:11:57.088Z,90.03
2017-04-12T01:13:16.895Z,89.93
2017-04-12T01:14:34.298Z,90.51
2017-04-12T01:15:51.137Z,90.41
2017-04-12T01:17:07.962Z,90.12
2017-04-12T01:18:24.235Z,90.47
2017-04-12T01:19:40.448Z,90.56
2017-04-12T01:20:57.933Z,90.66
2017-04-12T01:22:18.272Z,91.33
2017-04-12T01:23:35.061Z,91.33
2017-04-12T01:24:49.551Z,91.63
2017-04-12T01:26:09.275Z,91.43
2017-04-12T01:27:23.137Z,91.24
2017-04-12T01:28:48.763Z,91.05
2017-04-12T01:30:06.106Z,91.05
2017-04-12T01:31:21.647Z,91.33
2017-04-12T01:32:41.363Z,91.53
2017-04-12T01:33:55.229Z,91.72
2017-04-12T01:35:11.406Z,91.72
2017-04-12T01:36:24.701Z,91.91
2017-04-12T01:37:45.056Z,92.21
2017-04-12T01:38:59.437Z,92.4
2017-04-12T01:40:12.768Z,92.65
2017-04-12T01:41:27.267Z,92.3
2017-04-12T01:42:49.918Z,92.49
2017-04-12T01:44:06.017Z,92.69
2017-04-12T01:45:19.407Z,92.88
2017-04-12T01:46:32.771Z,92.88
2017-04-12T01:47:46.629Z,92.79
2017-04-12T01:49:04.762Z,93.32
2017-04-12T01:50:19.177Z,93.03
2017-04-12T01:51:35.981Z,93.23
2017-04-12T01:52:53.321Z,94.09
2017-04-12T01:54:09.559Z,93.9
2017-04-12T01:55:23.411Z,93.71
2017-04-12T01:56:45.378Z,93.8
2017-04-12T01:57:58.599Z,93.41
2017-04-12T01:59:12.548Z,93.8
2017-04-12T02:00:29.308Z,93.8
2017-04-12T02:01:46.076Z,93.99
2017-04-12T02:03:00.524Z,94.67
2017-04-12T02:04:14.511Z,93.9
2017-04-12T02:05:31.279Z,93.85
2017-04-12T02:06:45.725Z,93.99
2017-04-12T02:08:08.450Z,94.14
2017-04-12T02:09:27.623Z,94.48
2017-04-12T02:10:47.315Z,94.87
2017-04-12T02:12:03.572Z,94.96
2017-04-12T02:13:16.914Z,95.1
2017-04-12T02:14:36.684Z,95.49
2017-04-12T02:15:59.354Z,95.83
2017-04-12T02:17:15.626Z,96.22
2017-04-12T02:18:29.447Z,95.64
2017-04-12T02:19:46.906Z,95.78
2017-04-12T02:21:00.730Z,95.35
2017-04-12T02:22:20.407Z,95.4
2017-04-12T02:23:34.855Z,95.59
2017-04-12T02:24:49.345Z,95.78
2017-04-12T02:26:06.146Z,95.73
2017-04-12T02:27:26.467Z,95.93
2017-04-12T02:28:49.159Z,96.89
2017-04-12T02:30:03.007Z,96.61
2017-04-12T02:31:23.331Z,97.23
2017-04-12T02:32:37.702Z,96.56
2017-04-12T02:33:54.407Z,97.23
2017-04-12T02:35:08.306Z,97.86
2017-04-12T02:36:22.787Z,98.2
2017-04-12T02:37:39.535Z,98.1
2017-04-12T02:38:52.862Z,99.07
2017-04-12T02:40:06.008Z,98.63
2017-04-12T02:41:25.142Z,99.31
2017-04-12T02:42:41.931Z,99.99
2017-04-12T02:43:55.854Z,99.99
2017-04-12T02:45:08.585Z,99.99
2017-04-12T02:46:25.371Z,99.99
2017-04-12T02:47:48.053Z,99.99
2017-04-12T02:49:01.849Z,99.99
2017-04-12T02:50:19.191Z,99.99
2017-04-12T02:51:31.920Z,99.99
2017-04-12T02:52:45.180Z,99.99
2017-04-12T02:53:58.520Z,99.99
2017-04-12T02:55:12.254Z,99.99
2017-04-12T02:56:26.659Z,99.99
2017-04-12T02:57:43.441Z,99.99
2017-04-12T02:59:00.822Z,99.99
2017-04-12T03:00:17.605Z,99.99
2017-04-12T03:01:30.873Z,99.99
2017-04-12T03:02:44.088Z,99.99
2017-04-12T03:04:03.801Z,99.99
2017-04-12T03:05:17.612Z,99.99
2017-04-12T03:06:33.849Z,99.99
2017-04-12T03:07:51.195Z,99.99
2017-04-12T03:09:10.881Z,99.99
2017-04-12T03:10:25.338Z,99.99
2017-04-12T03:11:50.390Z,99.99
2017-04-12T03:13:03.618Z,99.99
2017-04-12T03:14:20.430Z,99.99
2017-04-12T03:15:34.284Z,99.99
2017-04-12T03:16:51.736Z,99.99
2017-04-12T03:18:05.649Z,99.99
2017-04-12T03:19:21.842Z,99.99
2017-04-12T03:20:35.714Z,99.99
2017-04-12T03:21:48.989Z,99.99
2017-04-12T03:23:02.830Z,99.99
2017-04-12T03:24:22.621Z,99.99
2017-04-12T03:25:35.975Z,99.99
2017-04-12T03:26:49.883Z,99.99
2017-04-12T03:28:03.743Z,99.99
2017-04-12T03:29:18.188Z,99.99
2017-04-12T03:30:32.642Z,99.99
2017-04-12T03:31:49.506Z,99.99
2017-04-12T03:33:06.953Z,99.99
2017-04-12T03:34:26.683Z,99.99
2017-04-12T03:35:49.324Z,99.99
2017-04-12T03:37:03.166Z,99.99
2017-04-12T03:38:16.492Z,99.99
2017-04-12T03:39:30.309Z,99.99
2017-04-12T03:40:43.020Z,99.99
2017-04-12T03:41:57.477Z,99.99
2017-04-12T03:43:17.068Z,99.99
2017-04-12T03:44:31.471Z,99.99
2017-04-12T03:45:48.864Z,99.99
2017-04-12T03:47:05.597Z,99.99
2017-04-12T03:48:18.925Z,99.99
2017-04-12T03:49:39.312Z,99.99
2017-04-12T03:50:59.030Z,99.99
2017-04-12T03:52:15.304Z,99.99
2017-04-12T03:53:32.701Z,99.99
2017-04-12T03:54:52.479Z,99.99
2017-04-12T03:56:09.174Z,99.99
2017-04-12T03:57:23.639Z,99.99
2017-04-12T03:58:43.365Z,99.99
2017-04-12T04:00:00.239Z,99.99
2017-04-12T04:01:17.006Z,99.99
2017-04-12T04:02:34.379Z,99.99
2017-04-12T04:03:50.550Z,99.99
2017-04-12T04:05:04.442Z,99.99
2017-04-12T04:06:24.148Z,99.99
2017-04-12T04:07:41.412Z,99.99
2017-04-12T04:08:55.280Z,99.99
2017-04-12T04:10:12.690Z,99.99
2017-04-12T04:11:26.603Z,99.99
2017-04-12T04:12:44.010Z,99.99
2017-04-12T04:13:58.421Z,99.99
2017-04-12T04:15:11.557Z,99.99
2017-04-12T04:16:28.513Z,99.99
2017-04-12T04:17:42.390Z,99.99
2017-04-12T04:18:59.819Z,99.99
2017-04-12T04:20:19.503Z,99.99
2017-04-12T04:21:33.897Z,99.99
2017-04-12T04:22:53.591Z,99.99
2017-04-12T04:24:10.932Z,99.99
2017-04-12T04:25:30.036Z,99.99
2017-04-12T04:26:43.905Z,99.99
2017-04-12T04:27:58.356Z,99.99
2017-04-12T04:29:18.085Z,99.99
2017-04-12T04:30:37.862Z,99.99
2017-04-12T04:31:51.745Z,99.99
2017-04-12T04:33:08.013Z,99.99
2017-04-12T04:34:24.760Z,99.99
2017-04-12T04:35:50.341Z,99.99
2017-04-12T04:37:09.322Z,99.99
2017-04-12T04:38:23.174Z,99.99
2017-04-12T04:39:37.556Z,99.99
2017-04-12T04:40:50.672Z,99.99
2017-04-12T04:42:04.505Z,99.99
2017-04-12T04:43:17.816Z,99.99
2017-04-12T04:44:32.256Z,99.99
2017-04-12T04:45:56.809Z,99.99
2017-04-12T04:47:13.600Z,99.99
2017-04-12T04:48:29.850Z,99.99
2017-04-12T04:49:49.602Z,99.99
2017-04-12T04:51:06.274Z,99.99
2017-04-12T04:52:22.475Z,99.99
2017-04-12T04:53:36.918Z,99.99
2017-04-12T04:54:50.835Z,99.99
2017-04-12T04:56:07.568Z,99.99
2017-04-12T04:57:24.978Z,99.99
2017-04-12T04:58:38.870Z,99.99
2017-04-12T04:59:52.787Z,99.99
2017-04-12T05:01:12.562Z,99.99
2017-04-12T05:02:29.949Z,99.99
2017-04-12T05:03:50.275Z,99.99
2017-04-12T05:05:06.944Z,99.99
2017-04-12T05:06:26.659Z,99.99
2017-04-12T05:07:45.781Z,99.99
2017-04-12T05:09:05.494Z,99.99
2017-04-12T05:10:19.225Z,99.99
2017-04-12T05:11:36.697Z,99.99
2017-04-12T05:12:54.116Z,99.99
2017-04-12T05:14:07.964Z,99.99
2017-04-12T05:15:30.638Z,99.99
2017-04-12T05:16:47.503Z,99.99
2017-04-12T05:18:01.360Z,99.99
2017-04-12T05:19:24.024Z,99.99
2017-04-12T05:20:37.254Z,99.99
2017-04-12T05:21:59.905Z,99.99
2017-04-12T05:23:19.632Z,99.99
2017-04-12T05:24:37.022Z,99.99
2017-04-12T05:25:56.740Z,99.99
2017-04-12T05:27:13.369Z,99.99
2017-04-12T05:28:27.314Z,99.99
2017-04-12T05:29:41.772Z,99.99
2017-04-12T05:30:58.592Z,99.99
2017-04-12T05:32:15.292Z,99.99
2017-04-12T05:33:29.263Z,99.99
2017-04-12T05:34:43.113Z,99.99
2017-04-12T05:36:00.395Z,99.99
2017-04-12T05:37:20.112Z,99.99
2017-04-12T05:38:38.762Z,99.99
2017-04-12T05:39:53.202Z,99.99
2017-04-12T05:41:10.026Z,99.99
2017-04-12T05:42:26.781Z,99.99
2017-04-12T05:43:40.601Z,99.99
2017-04-12T05:44:57.384Z,99.99
2017-04-12T05:46:14.147Z,99.99
2017-04-12T05:47:27.958Z,99.99
2017-04-12T05:48:41.782Z,99.99
2017-04-12T05:49:55.662Z,99.99
2017-04-12T05:51:11.894Z,99.99
2017-04-12T05:52:25.099Z,99.99
2017-04-12T05:53:41.796Z,99.99
2017-04-12T05:54:59.122Z,99.99
2017-04-12T05:56:13.602Z,99.99
2017-04-12T05:57:27.347Z,99.99
2017-04-12T05:58:41.819Z,99.99
2017-04-12T05:59:59.150Z,99.99
2017-04-12T06:01:24.169Z,99.99
2017-04-12T06:02:46.866Z,99.99
2017-04-12T06:04:00.673Z,99.99
2017-04-12T06:05:18.737Z,99.99
2017-04-12T06:06:32.548Z,99.99
2017-04-12T06:07:46.967Z,99.99
2017-04-12T06:09:03.722Z,99.99
2017-04-12T06:10:21.125Z,99.99
2017-04-12T06:11:43.795Z,99.99
2017-04-12T06:13:00.637Z,99.99
2017-04-12T06:14:14.537Z,99.99
2017-04-12T06:15:27.246Z,99.99
2017-04-12T06:16:41.707Z,99.99
2017-04-12T06:17:58.482Z,99.99
2017-04-12T06:19:15.281Z,99.99
2017-04-12T06:20:34.988Z,99.99
2017-04-12T06:21:49.500Z,99.99
2017-04-12T06:23:03.377Z,99.99
2017-04-12T06:24:20.823Z,99.99
2017-04-12T06:25:35.239Z,99.99
2017-04-12T06:26:55.546Z,99.99
2017-04-12T06:28:18.234Z,99.99
2017-04-12T06:29:40.871Z,99.99
2017-04-12T06:30:57.640Z,99.99
2017-04-12T06:32:17.958Z,99.99
2017-04-12T06:33:37.627Z,99.99
2017-04-12T06:34:57.344Z,99.99
2017-04-12T06:36:11.033Z,99.99
2017-04-12T06:37:33.672Z,99.99
2017-04-12T06:38:51.072Z,99.99
2017-04-12T06:40:05.531Z,99.99
2017-04-12T06:41:22.386Z,99.99
2017-04-12T06:42:36.250Z,99.99
2017-04-12T06:43:53.650Z,99.99
2017-04-12T06:45:08.082Z,99.99
2017-04-12T06:46:24.783Z,99.99
2017-04-12T06:47:44.502Z,99.99
2017-04-12T06:48:58.405Z,99.99
2017-04-12T06:50:11.787Z,99.99
2017-04-12T06:51:28.583Z,99.99
2017-04-12T06:52:45.392Z,99.99
2017-04-12T06:54:11.004Z,99.99
2017-04-12T06:55:30.098Z,99.99
2017-04-12T06:56:47.466Z,99.99
2017-04-12T06:58:06.600Z,99.99
2017-04-12T06:59:20.977Z,99.99
2017-04-12T07:00:37.792Z,99.99
2017-04-12T07:01:55.231Z,99.99
2017-04-12T07:03:07.959Z,99.99
2017-04-12T07:04:30.634Z,99.99
2017-04-12T07:05:53.268Z,99.99
2017-04-12T07:07:06.039Z,99.99
2017-04-12T07:08:28.719Z,99.99
2017-04-12T07:09:41.372Z,99.99
2017-04-12T07:11:01.727Z,99.99
2017-04-12T07:12:14.967Z,99.99
2017-04-12T07:13:28.817Z,99.99
2017-04-12T07:14:42.096Z,99.99
2017-04-12T07:15:56.572Z,99.99
2017-04-12T07:17:13.362Z,99.99
2017-04-12T07:18:27.834Z,99.99
2017-04-12T07:19:41.731Z,99.99
2017-04-12T07:20:56.228Z,99.99
2017-04-12T07:22:09.449Z,99.99
2017-04-12T07:23:23.751Z,99.99
2017-04-12T07:24:38.253Z,99.99
2017-04-12T07:25:52.093Z,99.99
2017-04-12T07:27:11.811Z,99.99
2017-04-12T07:28:31.600Z,99.99
2017-04-12T07:29:45.440Z,99.99
2017-04-12T07:31:02.111Z,99.99
2017-04-12T07:32:24.753Z,99.99
2017-04-12T07:33:47.446Z,99.99
2017-04-12T07:35:07.745Z,99.99
2017-04-12T07:36:21.701Z,99.99
2017-04-12T07:37:43.685Z,99.99
2017-04-12T07:38:57.559Z,99.99
2017-04-12T07:40:12.025Z,99.99
2017-04-12T07:41:26.409Z,99.99
2017-04-12T07:42:43.191Z,99.99
2017-04-12T07:43:57.159Z,99.99
2017-04-12T07:45:13.975Z,99.99
2017-04-12T07:46:30.731Z,99.99
2017-04-12T07:47:44.672Z,99.99
2017-04-12T07:48:58.601Z,99.99
2017-04-12T07:50:11.929Z,99.99
2017-04-12T07:51:31.180Z,99.99
2017-04-12T07:52:48.002Z,99.99
2017-04-12T07:54:03.684Z,99.99
2017-04-12T07:55:21.109Z,99.99
2017-04-12T07:56:37.937Z,99.99
2017-04-12T07:57:54.764Z,99.99
2017-04-12T07:59:07.490Z,99.99
2017-04-12T08:00:21.811Z,99.99
2017-04-12T08:01:38.126Z,99.99
2017-04-12T08:02:51.458Z,99.99
2017-04-12T08:04:08.870Z,99.99
2017-04-12T08:05:23.314Z,99.99
2017-04-12T08:06:48.279Z,99.99
2017-04-12T08:08:07.984Z,99.99
2017-04-12T08:09:21.622Z,99.99
2017-04-12T08:10:40.108Z,99.99
2017-04-12T08:11:53.218Z,99.99
2017-04-12T08:13:10.087Z,99.99
2017-04-12T08:14:23.699Z,99.99
2017-04-12T08:15:37.406Z,99.99
2017-04-12T08:16:54.139Z,99.99
2017-04-12T08:18:08.568Z,99.99
2017-04-12T08:19:21.358Z,99.99
2017-04-12T08:20:40.547Z,99.99
2017-04-12T08:22:00.287Z,99.99
2017-04-12T08:23:17.073Z,99.99
2017-04-12T08:24:35.653Z,99.99
2017-04-12T08:25:48.285Z,99.99
2017-04-12T08:27:10.913Z,99.99
2017-04-12T08:28:24.233Z,99.99
2017-04-12T08:29:37.500Z,99.99
2017-04-12T08:30:51.341Z,99.99
2017-04-12T08:32:06.368Z,99.99
2017-04-12T08:33:19.702Z,99.99
2017-04-12T08:34:33.559Z,99.99
2017-04-12T08:35:56.131Z,99.99
2017-04-12T08:37:10.053Z,99.99
2017-04-12T08:38:26.859Z,99.99
2017-04-12T08:39:43.015Z,99.99
2017-04-12T08:40:59.707Z,99.99
2017-04-12T08:42:14.781Z,99.99
2017-04-12T08:43:28.003Z,99.99
2017-04-12T08:44:42.407Z,99.99
2017-04-12T08:45:57.874Z,99.99
2017-04-12T08:47:12.292Z,99.99
2017-04-12T08:48:26.195Z,99.99
2017-04-12T08:49:40.132Z,99.99
2017-04-12T08:50:59.135Z,99.99
2017-04-12T08:52:13.418Z,99.99
2017-04-12T08:53:29.644Z,99.99
2017-04-12T08:54:42.955Z,99.99
2017-04-12T08:55:56.820Z,99.99
2017-04-12T08:57:13.618Z,99.99
2017-04-12T08:58:29.288Z,99.99
2017-04-12T08:59:43.103Z,99.99
2017-04-12T09:00:59.879Z,99.99
2017-04-12T09:02:13.692Z,99.99
2017-04-12T09:03:26.940Z,99.99
2017-04-12T09:04:46.553Z,99.99
2017-04-12T09:05:59.339Z,99.99
2017-04-12T09:07:13.224Z,99.99
2017-04-12T09:08:27.652Z,99.99
2017-04-12T09:09:40.778Z,99.99
2017-04-12T09:10:54.113Z,99.99
2017-04-12T09:12:10.935Z,99.99
2017-04-12T09:13:31.273Z,99.99
2017-04-12T09:14:45.657Z,99.99
2017-04-12T09:16:00.088Z,99.99
2017-04-12T09:17:16.749Z,99.99
2017-04-12T09:18:34.133Z,99.99
2017-04-12T09:19:56.803Z,99.99
2017-04-12T09:21:13.479Z,99.99
2017-04-12T09:22:33.392Z,99.99
2017-04-12T09:23:49.584Z,99.99
2017-04-12T09:25:08.802Z,99.99
2017-04-12T09:26:22.645Z,99.99
2017-04-12T09:27:37.151Z,99.99
2017-04-12T09:28:54.546Z,99.99
2017-04-12T09:30:08.378Z,99.99
2017-04-12T09:31:23.378Z,99.99
2017-04-12T09:32:37.215Z,99.99
2017-04-12T09:34:05.331Z,99.99
2017-04-12T09:35:21.842Z,99.99
2017-04-12T09:36:41.037Z,99.99
2017-04-12T09:37:54.883Z,99.99
2017-04-12T09:39:07.604Z,99.99
2017-04-12T09:40:20.200Z,99.99
2017-04-12T09:41:42.732Z,99.99
2017-04-12T09:43:01.744Z,99.99
2017-04-12T09:44:15.516Z,99.99
2017-04-12T09:45:28.841Z,99.99
2017-04-12T09:46:41.993Z,99.99
2017-04-12T09:47:55.030Z,99.99
2017-04-12T09:49:07.834Z,99.99
2017-04-12T09:50:29.926Z,99.99
2017-04-12T09:51:47.254Z,99.99
2017-04-12T09:53:01.145Z,99.99
2017-04-12T09:54:17.820Z,99.99
2017-04-12T09:55:35.147Z,99.99
2017-04-12T09:56:54.315Z,99.99
2017-04-12T09:58:08.630Z,99.99
2017-04-12T09:59:24.758Z,99.99
2017-04-12T10:00:38.076Z,99.99
2017-04-12T10:01:51.379Z,99.99
2017-04-12T10:03:05.272Z,99.99
2017-04-12T10:04:22.038Z,99.99
2017-04-12T10:05:38.966Z,99.99
2017-04-12T10:06:52.825Z,99.99
2017-04-12T10:08:08.000Z,99.99
2017-04-12T10:09:24.886Z,99.99
2017-04-12T10:10:38.244Z,99.99
2017-04-12T10:11:52.056Z,99.99
2017-04-12T10:13:11.264Z,99.99
2017-04-12T10:14:27.522Z,99.99
2017-04-12T10:15:44.234Z,99.99
2017-04-12T10:16:57.548Z,99.99
2017-04-12T10:18:14.261Z,99.99
2017-04-12T10:19:26.981Z,99.99
2017-04-12T10:20:46.170Z,99.99
2017-04-12T10:21:59.957Z,99.99
2017-04-12T10:23:16.638Z,99.99
2017-04-12T10:24:30.473Z,99.99
2017-04-12T10:25:43.812Z,99.99
2017-04-12T10:26:58.246Z,99.99
2017-04-12T10:28:13.298Z,99.99
2017-04-12T10:29:29.451Z,99.99
2017-04-12T10:30:46.324Z,99.99
2017-04-12T10:32:01.925Z,99.99
2017-04-12T10:33:15.284Z,99.99
2017-04-12T10:34:29.206Z,99.99
2017-04-12T10:35:42.893Z,99.99
2017-04-12T10:36:56.142Z,99.99
2017-04-12T10:38:10.574Z,99.99
2017-04-12T10:39:27.358Z,99.99
2017-04-12T10:40:41.192Z,99.99
2017-04-12T10:41:53.907Z,99.99
2017-04-12T10:43:10.400Z,99.99
2017-04-12T10:44:35.354Z,99.99
2017-04-12T10:45:49.746Z,99.99
2017-04-12T10:47:02.469Z,99.99
2017-04-12T10:48:21.702Z,99.99
2017-04-12T10:49:41.438Z,99.99
2017-04-12T10:50:54.489Z,99.99
2017-04-12T10:52:07.276Z,99.99
2017-04-12T10:53:29.935Z,99.99
2017-04-12T10:54:42.023Z,99.99
2017-04-12T10:55:54.901Z,99.99
2017-04-12T10:57:10.064Z,99.99
2017-04-12T10:58:23.392Z,99.99
2017-04-12T10:59:39.437Z,99.99
2017-04-12T11:00:55.679Z,99.99
2017-04-12T11:02:17.172Z,99.99
2017-04-12T11:03:29.894Z,99.99
2017-04-12T11:04:43.003Z,99.99
2017-04-12T11:06:02.739Z,99.99
2017-04-12T11:07:16.712Z,99.99
2017-04-12T11:08:31.127Z,99.99
2017-04-12T11:09:50.361Z,99.99
2017-04-12T11:11:07.134Z,99.99
2017-04-12T11:12:23.401Z,99.99
2017-04-12T11:13:37.220Z,99.99
2017-04-12T11:14:53.472Z,99.99
2017-04-12T11:16:07.353Z,99.99
2017-04-12T11:17:20.605Z,99.99
2017-04-12T11:18:33.157Z,99.99
2017-04-12T11:19:46.475Z,99.99
2017-04-12T11:21:03.875Z,99.99
2017-04-12T11:22:25.391Z,99.99
2017-04-12T11:23:51.027Z,99.99
2017-04-12T11:25:13.728Z,98.05
2017-04-12T11:26:26.965Z,97.04
2017-04-12T11:27:41.402Z,96.66
2017-04-12T11:28:58.786Z,96.27
2017-04-12T11:30:15.385Z,95.79
2017-04-12T11:31:28.005Z,95.4
2017-04-12T11:32:43.667Z,95.5
2017-04-12T11:34:01.747Z,96.75
2017-04-12T11:35:19.107Z,98.2
2017-04-12T11:36:41.842Z,99.99
2017-04-12T11:37:58.020Z,99.99
2017-04-12T11:39:11.336Z,99.99
2017-04-12T11:40:27.076Z,99.99
2017-04-12T11:41:39.272Z,99.99
2017-04-12T11:42:51.913Z,99.99
2017-04-12T11:44:08.632Z,99.99
2017-04-12T11:45:22.476Z,99.99
2017-04-12T11:46:36.954Z,99.99
2017-04-12T11:47:54.319Z,99.99
2017-04-12T11:49:07.320Z,99.84
2017-04-12T11:50:21.101Z,99.99
2017-04-12T11:51:37.388Z,99.99
2017-04-12T11:52:53.067Z,99.99
2017-04-12T11:54:06.272Z,99.99
2017-04-12T11:55:22.936Z,99.99
2017-04-12T11:56:39.705Z,99.99
2017-04-12T11:57:56.455Z,99.99
2017-04-12T11:59:13.314Z,99.99
2017-04-12T12:00:33.027Z,99.99
2017-04-12T12:01:47.432Z,99.99
2017-04-12T12:03:03.686Z,99.99
2017-04-12T12:04:23.416Z,99.99
2017-04-12T12:05:37.910Z,99.99
2017-04-12T12:06:53.568Z,99.99
2017-04-12T12:08:09.810Z,99.99
2017-04-12T12:09:22.493Z,99.99
2017-04-12T12:10:39.294Z,99.99
2017-04-12T12:11:53.066Z,99.99
2017-04-12T12:13:06.450Z,99.93
2017-04-12T12:14:20.897Z,99.44
2017-04-12T12:15:34.744Z,97.67
2017-04-12T12:16:47.990Z,97.86
2017-04-12T12:18:07.692Z,99.3
2017-04-12T12:19:23.436Z,98.68
2017-04-12T12:20:37.257Z,98.82
2017-04-12T12:21:54.042Z,99.3
2017-04-12T12:23:10.234Z,99.99
2017-04-12T12:24:27.037Z,99.99
2017-04-12T12:25:40.331Z,99.74
2017-04-12T12:27:00.657Z,99.99
2017-04-12T12:28:16.534Z,99.99
2017-04-12T12:29:29.264Z,99.99
2017-04-12T12:30:43.128Z,99.99
2017-04-12T12:31:56.853Z,99.99
2017-04-12T12:33:10.816Z,99.99
2017-04-12T12:34:27.037Z,99.99
2017-04-12T12:35:41.402Z,99.99
2017-04-12T12:36:56.971Z,99.99
2017-04-12T12:38:09.625Z,99.99
2017-04-12T12:39:23.020Z,99.99
2017-04-12T12:40:39.867Z,99.99
2017-04-12T12:41:57.222Z,99.99
2017-04-12T12:43:14.003Z,99.99
2017-04-12T12:44:30.778Z,99.99
2017-04-12T12:45:44.607Z,99.99
2017-04-12T12:47:02.010Z,99.99
2017-04-12T12:48:19.362Z,99.99
2017-04-12T12:49:36.168Z,99.99
2017-04-12T12:50:55.421Z,99.99
2017-04-12T12:52:08.582Z,99.26
2017-04-12T12:53:25.362Z,97.57
2017-04-12T12:54:40.925Z,95.21
2017-04-12T12:55:57.668Z,96.37
2017-04-12T12:57:12.106Z,96.66
2017-04-12T12:58:26.600Z,97.04
2017-04-12T12:59:49.280Z,98.39
2017-04-12T13:01:09.014Z,97.52
2017-04-12T13:02:22.890Z,97.42
2017-04-12T13:03:36.777Z,97.62
2017-04-12T13:04:59.462Z,95.02
2017-04-12T13:06:13.352Z,93.23
2017-04-12T13:07:27.772Z,91.44
2017-04-12T13:08:40.463Z,89.65
2017-04-12T13:09:53.764Z,89.37
2017-04-12T13:11:07.481Z,89.17
2017-04-12T13:12:21.307Z,89.56
2017-04-12T13:13:40.452Z,87.92
2017-04-12T13:14:56.752Z,87.24
2017-04-12T13:16:10.707Z,87.29
2017-04-12T13:17:25.150Z,88.15
2017-04-12T13:18:39.043Z,89.07
2017-04-12T13:19:52.936Z,89.71
2017-04-12T13:21:09.202Z,90.87
2017-04-12T13:22:25.994Z,92.12
2017-04-12T13:23:41.075Z,93.23
2017-04-12T13:24:57.882Z,93.62
2017-04-12T13:26:18.278Z,93.13
2017-04-12T13:27:40.916Z,92.65
2017-04-12T13:28:54.175Z,92.46
2017-04-12T13:30:07.402Z,92.36
2017-04-12T13:31:21.890Z,92.46
2017-04-12T13:32:35.243Z,92.46
2017-04-12T13:33:52.653Z,93.23
2017-04-12T13:35:06.522Z,94
2017-04-12T13:36:20.385Z,94.48
2017-04-12T13:37:33.604Z,94.92
2017-04-12T13:38:50.390Z,95.79
2017-04-12T13:40:10.096Z,97.28
2017-04-12T13:41:29.832Z,97.47
2017-04-12T13:42:43.137Z,97.47
2017-04-12T13:43:57.643Z,96.03
2017-04-12T13:45:20.347Z,94.15
2017-04-12T13:46:36.589Z,93.66
2017-04-12T13:47:53.369Z,92.75
2017-04-12T13:49:13.109Z,93.08
2017-04-12T13:50:30.506Z,94.2
2017-04-12T13:51:46.717Z,96.37
2017-04-12T13:53:04.197Z,99.45
2017-04-12T13:54:17.510Z,99.99
2017-04-12T13:55:37.201Z,99.99
2017-04-12T13:56:56.297Z,99.99
2017-04-12T13:58:09.714Z,99.99
2017-04-12T13:59:23.610Z,99.64
2017-04-12T14:00:37.494Z,96.7
2017-04-12T14:01:50.241Z,95.11
2017-04-12T14:03:05.322Z,93.71
2017-04-12T14:04:22.681Z,91.83
2017-04-12T14:05:40.044Z,90.72
2017-04-12T14:06:53.890Z,89.37
2017-04-12T14:08:07.827Z,93.71
2017-04-12T14:09:33.490Z,96.51
2017-04-12T14:10:53.236Z,95.89
2017-04-12T14:12:10.621Z,95.45
2017-04-12T14:13:24.538Z,94.44
2017-04-12T14:14:41.211Z,93.71
2017-04-12T14:15:55.104Z,91.69
2017-04-12T14:17:08.447Z,93.28
2017-04-12T14:18:28.236Z,94.2
2017-04-12T14:19:45.632Z,94.48
2017-04-12T14:21:05.353Z,93.13
2017-04-12T14:22:18.102Z,91.93
2017-04-12T14:23:31.354Z,91.16
2017-04-12T14:24:45.227Z,89.95
2017-04-12T14:26:01.494Z,91.16
2017-04-12T14:27:18.249Z,92.5
2017-04-12T14:28:37.914Z,94.2
2017-04-12T14:29:51.726Z,96.7
2017-04-12T14:31:09.179Z,99.99
2017-04-12T14:32:28.404Z,99.99
2017-04-12T14:33:42.262Z,99.99
2017-04-12T14:34:56.687Z,99.99
2017-04-12T14:36:12.826Z,99.99
2017-04-12T14:37:27.262Z,99.99
2017-04-12T14:38:41.687Z,99.99
2017-04-12T14:40:01.338Z,99.99
2017-04-12T14:41:15.734Z,99.99
2017-04-12T14:42:35.427Z,99.99
2017-04-12T14:43:51.678Z,99.99
2017-04-12T14:45:05.577Z,99.99
2017-04-12T14:46:19.365Z,99.99
2017-04-12T14:47:33.229Z,99.99
2017-04-12T14:48:55.885Z,99.99
2017-04-12T14:50:15.668Z,99.99
2017-04-12T14:51:32.455Z,99.99
2017-04-12T14:52:46.893Z,99.99
2017-04-12T14:54:08.921Z,99.99
2017-04-12T14:55:23.380Z,99.99
2017-04-12T14:56:39.077Z,99.99
2017-04-12T14:57:52.432Z,99.99
2017-04-12T14:59:09.243Z,99.99
2017-04-12T15:00:23.071Z,99.99
2017-04-12T15:01:42.231Z,98.05
2017-04-12T15:02:56.075Z,90.77
2017-04-12T15:04:10.509Z,93.76
2017-04-12T15:05:24.359Z,92.5
2017-04-12T15:06:41.723Z,91.01
2017-04-12T15:08:03.294Z,92.5
2017-04-12T15:09:15.998Z,90.87
2017-04-12T15:10:32.773Z,91.74
2017-04-12T15:11:49.538Z,92.22
2017-04-12T15:13:09.326Z,89.07
2017-04-12T15:14:30.855Z,89.17
2017-04-12T15:15:50.616Z,87.87
2017-04-12T15:17:07.295Z,87.58
2017-04-12T15:18:21.137Z,87.48
2017-04-12T15:19:34.383Z,88.89
2017-04-12T15:20:48.318Z,88.4
2017-04-12T15:22:07.910Z,87.15
2017-04-12T15:23:20.115Z,88.11
2017-04-12T15:24:33.923Z,88.31
2017-04-12T15:25:51.364Z,89.23
2017-04-12T15:27:10.602Z,89.42
2017-04-12T15:28:23.963Z,88.36
2017-04-12T15:29:38.439Z,87.92
2017-04-12T15:30:58.174Z,85.22
2017-04-12T15:32:11.896Z,86.42
2017-04-12T15:33:26.347Z,88.21
2017-04-12T15:34:40.786Z,88.26
2017-04-12T15:35:57.094Z,88.84
2017-04-12T15:37:11.568Z,88.84
2017-04-12T15:38:31.307Z,88.84
2017-04-12T15:39:45.762Z,87.78
2017-04-12T15:40:59.583Z,87.01
2017-04-12T15:42:13.991Z,85.94
2017-04-12T15:43:28.454Z,81.88
2017-04-12T15:44:42.281Z,79.06
2017-04-12T15:45:59.036Z,79.29
2017-04-12T15:47:12.316Z,79.29
2017-04-12T15:48:26.147Z,78.52
2017-04-12T15:49:39.959Z,80.84
2017-04-12T15:50:54.981Z,82.89
2017-04-12T15:52:14.743Z,85.84
2017-04-12T15:53:28.586Z,89.75
2017-04-12T15:54:51.283Z,92.08
2017-04-12T15:56:07.422Z,94.15
2017-04-12T15:57:20.472Z,94.92
2017-04-12T15:58:34.322Z,97.86
2017-04-12T15:59:48.195Z,99.74
2017-04-12T16:01:01.542Z,99.99
2017-04-12T16:02:14.787Z,99.99
2017-04-12T16:03:32.139Z,99.99
2017-04-12T16:04:45.995Z,99.99
2017-04-12T16:06:08.729Z,96.94
2017-04-12T16:07:22.561Z,92.51
2017-04-12T16:08:39.420Z,87.34
2017-04-12T16:09:51.625Z,84.97
2017-04-12T16:11:11.349Z,82.45
2017-04-12T16:12:28.164Z,84.86
2017-04-12T16:13:42.593Z,87.29
2017-04-12T16:14:56.439Z,88.79
2017-04-12T16:16:10.385Z,91.44
2017-04-12T16:17:23.618Z,94.29
2017-04-12T16:18:38.053Z,94.54
2017-04-12T16:19:52.504Z,95.11
2017-04-12T16:21:08.794Z,95.89
2017-04-12T16:22:25.556Z,99.16